createdAt,value
2018-07-28T00:01:26.840Z,101197.69
2018-07-28T00:03:57.316Z,101200.68
2018-07-28T00:06:27.531Z,101209.94
2018-07-28T00:08:57.073Z,101190.80
2018-07-28T00:11:28.793Z,101189.16
2018-07-28T00:13:58.983Z,101193.54
2018-07-28T00:16:28.989Z,101193.26
2018-07-28T00:18:58.672Z,101192.45
2018-07-28T00:21:27.874Z,101186.45
2018-07-28T00:23:58.021Z,101192.47
2018-07-28T00:26:27.794Z,101180.73
2018-07-28T00:28:57.367Z,101178.55
2018-07-28T00:31:27.341Z,101172.27
2018-07-28T00:33:56.572Z,101167.06
2018-07-28T00:36:26.478Z,101163.23
2018-07-28T00:38:56.222Z,101163.48
2018-07-28T00:41:26.113Z,101157.47
2018-07-28T00:43:58.613Z,101151.70
2018-07-28T00:46:28.326Z,101139.39
2018-07-28T00:48:57.870Z,101143.48
2018-07-28T00:51:27.304Z,101134.45
2018-07-28T00:53:57.564Z,101136.62
2018-07-28T00:56:27.744Z,101139.34
2018-07-28T00:58:57.961Z,101131.98
2018-07-28T01:01:28.148Z,101130.62
2018-07-28T01:03:58.032Z,101121.33
2018-07-28T01:06:28.359Z,101124.87
2018-07-28T01:08:58.842Z,101125.69
2018-07-28T01:11:27.751Z,101124.30
2018-07-28T01:13:57.288Z,101115.01
2018-07-28T01:16:27.004Z,101118.54
2018-07-28T01:18:56.682Z,101115.81
2018-07-28T01:21:27.176Z,101117.44
2018-07-28T01:23:57.377Z,101107.34
2018-07-28T01:26:27.648Z,101098.59
2018-07-28T01:29:01.609Z,101101.85
2018-07-28T01:31:31.352Z,101096.91
2018-07-28T01:34:01.129Z,101094.71
2018-07-28T01:36:30.592Z,101099.05
2018-07-28T01:39:00.179Z,101100.16
2018-07-28T01:41:29.076Z,101099.31
2018-07-28T01:43:59.565Z,101101.77
2018-07-28T01:46:29.551Z,101095.47
2018-07-28T01:48:58.479Z,101097.37
2018-07-28T01:51:27.741Z,101092.44
2018-07-28T01:53:57.518Z,101087.23
2018-07-28T01:56:28.220Z,101089.72
2018-07-28T01:58:58.584Z,101080.70
2018-07-28T02:01:28.181Z,101079.87
2018-07-28T02:03:59.131Z,101073.03
2018-07-28T02:06:28.380Z,101075.20
2018-07-28T02:08:58.347Z,101074.09
2018-07-28T02:11:27.289Z,101071.88
2018-07-28T02:13:57.428Z,101072.15
2018-07-28T02:16:26.558Z,101067.73
2018-07-28T02:18:56.093Z,101075.89
2018-07-28T02:21:26.026Z,101066.59
2018-07-28T02:23:56.284Z,101076.94
2018-07-28T02:26:27.040Z,101070.66
2018-07-28T02:29:01.313Z,101063.56
2018-07-28T02:31:31.092Z,101070.66
2018-07-28T02:34:00.913Z,101064.64
2018-07-28T02:36:30.720Z,101060.81
2018-07-28T02:39:00.144Z,101058.05
2018-07-28T02:41:29.423Z,101061.59
2018-07-28T02:43:58.768Z,101061.00
2018-07-28T02:46:28.328Z,101059.64
2018-07-28T02:48:57.498Z,101066.45
2018-07-28T02:51:26.880Z,101067.81
2018-07-28T02:53:57.408Z,101064.81
2018-07-28T02:56:27.339Z,101069.95
2018-07-28T02:58:59.054Z,101071.02
2018-07-28T03:01:28.793Z,101073.50
2018-07-28T03:03:58.363Z,101059.59
2018-07-28T03:06:27.294Z,101060.36
2018-07-28T03:08:58.301Z,101057.89
2018-07-28T03:11:27.634Z,101055.17
2018-07-28T03:13:57.712Z,101054.37
2018-07-28T03:16:27.035Z,101060.34
2018-07-28T03:18:57.852Z,101060.08
2018-07-28T03:21:27.429Z,101062.29
2018-07-28T03:23:57.865Z,101057.92
2018-07-28T03:26:27.571Z,101053.29
2018-07-28T03:28:56.640Z,101043.23
2018-07-28T03:31:26.599Z,101041.62
2018-07-28T03:33:56.678Z,101032.33
2018-07-28T03:36:26.571Z,101032.38
2018-07-28T03:38:56.281Z,101026.20
2018-07-28T03:41:26.485Z,101031.39
2018-07-28T03:43:56.100Z,101032.19
2018-07-28T03:46:25.657Z,101025.38
2018-07-28T03:48:54.955Z,101029.72
2018-07-28T03:51:24.462Z,101016.66
2018-07-28T03:53:54.444Z,101014.73
2018-07-28T03:56:24.251Z,101021.30
2018-07-28T03:58:53.968Z,101016.09
2018-07-28T04:01:25.272Z,101027.00
2018-07-28T04:03:57.072Z,101018.00
2018-07-28T04:06:26.285Z,101012.29
2018-07-28T04:08:56.472Z,101015.31
2018-07-28T04:11:26.107Z,101015.89
2018-07-28T04:13:56.020Z,101012.37
2018-07-28T04:16:25.323Z,101009.91
2018-07-28T04:18:54.856Z,101010.19
2018-07-28T04:21:25.513Z,101011.55
2018-07-28T04:23:55.116Z,101015.12
2018-07-28T04:26:25.128Z,101014.62
2018-07-28T04:28:54.282Z,101007.00
2018-07-28T04:31:23.971Z,101011.66
2018-07-28T04:33:53.846Z,101001.60
2018-07-28T04:36:23.599Z,101005.16
2018-07-28T04:38:52.617Z,100998.37
2018-07-28T04:41:21.607Z,100997.55
2018-07-28T04:43:50.814Z,100996.21
2018-07-28T04:46:19.844Z,100989.73
2018-07-28T04:48:49.493Z,100989.69
2018-07-28T04:51:18.371Z,100994.05
2018-07-28T04:53:47.262Z,100994.34
2018-07-28T04:56:16.724Z,100995.17
2018-07-28T04:58:46.589Z,100986.73
2018-07-28T05:01:16.249Z,100993.80
2018-07-28T05:03:45.941Z,100988.60
2018-07-28T05:06:15.492Z,100986.40
2018-07-28T05:08:45.063Z,100981.75
2018-07-28T05:11:14.003Z,100969.50
2018-07-28T05:13:42.879Z,100962.44
2018-07-28T05:16:11.883Z,100959.96
2018-07-28T05:18:41.143Z,100958.88
2018-07-28T05:21:10.910Z,100950.19
2018-07-28T05:23:40.128Z,100951.82
2018-07-28T05:26:09.124Z,100952.92
2018-07-28T05:28:38.724Z,100940.36
2018-07-28T05:31:08.383Z,100944.98
2018-07-28T05:33:37.858Z,100937.63
2018-07-28T05:36:07.219Z,100947.45
2018-07-28T05:38:36.823Z,100945.27
2018-07-28T05:41:06.580Z,100943.91
2018-07-28T05:43:35.785Z,100936.27
2018-07-28T05:46:05.901Z,100932.47
2018-07-28T05:48:34.792Z,100930.83
2018-07-28T05:51:03.705Z,100929.74
2018-07-28T05:53:32.649Z,100930.30
2018-07-28T05:56:02.640Z,100929.20
2018-07-28T05:58:32.685Z,100922.12
2018-07-28T06:01:03.148Z,100913.88
2018-07-28T06:03:33.444Z,100912.50
2018-07-28T06:06:03.141Z,100908.68
2018-07-28T06:08:33.140Z,100905.70
2018-07-28T06:11:02.048Z,100912.78
2018-07-28T06:13:31.245Z,100905.67
2018-07-28T06:16:00.492Z,100911.37
2018-07-28T06:18:30.280Z,100900.12
2018-07-28T06:20:59.764Z,100898.48
2018-07-28T06:23:30.870Z,100898.52
2018-07-28T06:26:00.560Z,100900.17
2018-07-28T06:28:30.274Z,100895.25
2018-07-28T06:31:01.220Z,100891.45
2018-07-28T06:33:30.714Z,100882.44
2018-07-28T06:36:00.232Z,100882.16
2018-07-28T06:38:29.739Z,100877.21
2018-07-28T06:40:59.596Z,100882.13
2018-07-28T06:43:28.508Z,100882.08
2018-07-28T06:45:58.033Z,100890.00
2018-07-28T06:48:28.321Z,100888.59
2018-07-28T06:50:58.304Z,100884.45
2018-07-28T06:53:27.701Z,100874.24
2018-07-28T06:55:58.385Z,100892.23
2018-07-28T06:58:28.586Z,100888.03
2018-07-28T07:00:58.892Z,100884.14
2018-07-28T07:03:29.212Z,100885.47
2018-07-28T07:05:58.615Z,100874.66
2018-07-28T07:08:28.595Z,100881.65
2018-07-28T07:10:57.916Z,100870.69
2018-07-28T07:13:27.144Z,100869.41
2018-07-28T07:15:56.979Z,100869.19
2018-07-28T07:18:26.562Z,100864.72
2018-07-28T07:20:57.062Z,100864.98
2018-07-28T07:23:26.701Z,100858.55
2018-07-28T07:25:56.726Z,100854.00
2018-07-28T07:28:27.331Z,100865.47
2018-07-28T07:30:57.535Z,100857.34
2018-07-28T07:33:27.707Z,100852.23
2018-07-28T07:35:57.024Z,100843.84
2018-07-28T07:38:30.119Z,100832.94
2018-07-28T07:40:59.328Z,100838.46
2018-07-28T07:43:29.028Z,100832.19
2018-07-28T07:45:58.352Z,100833.53
2018-07-28T07:48:28.163Z,100836.80
2018-07-28T07:50:58.012Z,100837.91
2018-07-28T07:53:27.718Z,100834.61
2018-07-28T07:55:58.024Z,100836.77
2018-07-28T07:58:27.928Z,100838.14
2018-07-28T08:00:57.930Z,100825.55
2018-07-28T08:03:28.539Z,100825.67
2018-07-28T08:05:58.658Z,100815.32
2018-07-28T08:08:28.744Z,100822.10
2018-07-28T08:10:57.998Z,100820.80
2018-07-28T08:13:28.307Z,100826.30
2018-07-28T08:15:57.585Z,100825.75
2018-07-28T08:18:27.660Z,100814.23
2018-07-28T08:20:58.453Z,100814.45
2018-07-28T08:23:28.340Z,100798.39
2018-07-28T08:25:57.844Z,100799.20
2018-07-28T08:28:28.156Z,100793.51
2018-07-28T08:30:57.435Z,100782.08
2018-07-28T08:33:27.508Z,100778.46
2018-07-28T08:35:57.093Z,100783.36
2018-07-28T08:38:27.528Z,100790.44
2018-07-28T08:40:57.799Z,100791.46
2018-07-28T08:43:27.304Z,100787.64
2018-07-28T08:45:56.422Z,100778.55
2018-07-28T08:48:26.254Z,100774.65
2018-07-28T08:50:56.919Z,100777.27
2018-07-28T08:53:26.547Z,100775.20
2018-07-28T08:55:56.800Z,100766.72
2018-07-28T08:58:26.939Z,100775.67
2018-07-28T09:00:57.364Z,100772.54
2018-07-28T09:03:27.308Z,100761.50
2018-07-28T09:05:58.026Z,100762.41
2018-07-28T09:08:27.918Z,100744.94
2018-07-28T09:10:57.844Z,100760.84
2018-07-28T09:13:27.336Z,100754.84
2018-07-28T09:15:57.471Z,100762.20
2018-07-28T09:18:27.183Z,100751.12
2018-07-28T09:20:57.115Z,100757.58
2018-07-28T09:23:27.562Z,100742.64
2018-07-28T09:25:56.992Z,100756.64
2018-07-28T09:28:26.585Z,100749.59
2018-07-28T09:30:56.717Z,100746.02
2018-07-28T09:33:26.412Z,100741.89
2018-07-28T09:35:55.800Z,100744.97
2018-07-28T09:38:25.519Z,100742.34
2018-07-28T09:40:54.860Z,100750.46
2018-07-28T09:43:24.818Z,100744.89
2018-07-28T09:45:55.180Z,100735.23
2018-07-28T09:48:24.453Z,100735.27
2018-07-28T09:50:54.696Z,100735.66
2018-07-28T09:53:24.579Z,100730.60
2018-07-28T09:55:55.205Z,100728.99
2018-07-28T09:58:25.708Z,100731.30
2018-07-28T10:00:59.661Z,100737.45
2018-07-28T10:03:29.803Z,100740.09
2018-07-28T10:05:59.412Z,100729.16
2018-07-28T10:08:29.376Z,100727.95
2018-07-28T10:10:58.832Z,100728.11
2018-07-28T10:13:28.012Z,100734.19
2018-07-28T10:15:57.073Z,100730.47
2018-07-28T10:18:27.316Z,100725.03
2018-07-28T10:20:57.210Z,100727.66
2018-07-28T10:23:27.037Z,100724.19
2018-07-28T10:25:58.574Z,100739.52
2018-07-28T10:28:28.698Z,100726.73
2018-07-28T10:30:59.054Z,100723.77
2018-07-28T10:33:28.776Z,100722.45
2018-07-28T10:35:58.482Z,100724.87
2018-07-28T10:38:27.315Z,100729.55
2018-07-28T10:40:56.693Z,100733.82
2018-07-28T10:43:26.237Z,100727.25
2018-07-28T10:45:56.187Z,100728.34
2018-07-28T10:48:25.634Z,100730.47
2018-07-28T10:50:55.059Z,100725.66
2018-07-28T10:53:25.020Z,100725.96
2018-07-28T10:55:57.499Z,100719.77
2018-07-28T10:58:28.252Z,100723.78
2018-07-28T11:00:57.684Z,100722.52
2018-07-28T11:03:27.718Z,100713.94
2018-07-28T11:05:57.351Z,100714.06
2018-07-28T11:08:29.197Z,100709.81
2018-07-28T11:10:58.538Z,100702.73
2018-07-28T11:13:27.844Z,100697.44
2018-07-28T11:15:57.256Z,100698.03
2018-07-28T11:18:27.425Z,100686.73
2018-07-28T11:20:57.080Z,100690.48
2018-07-28T11:23:36.981Z,100684.83
2018-07-28T11:26:06.308Z,100678.27
2018-07-28T11:28:35.192Z,100675.27
2018-07-28T11:31:05.878Z,100671.39
2018-07-28T11:33:46.892Z,100662.63
2018-07-28T11:36:26.621Z,100672.45
2018-07-28T11:39:06.524Z,100664.30
2018-07-28T11:43:54.407Z,100665.83
2018-07-28T11:46:24.456Z,100650.41
2018-07-28T11:48:53.788Z,100648.31
2018-07-28T11:51:22.689Z,100652.16
2018-07-28T11:53:51.727Z,100642.45
2018-07-28T11:56:21.708Z,100635.19
2018-07-28T11:58:51.756Z,100618.95
2018-07-28T12:01:21.484Z,100639.06
2018-07-28T12:03:50.940Z,100635.33
2018-07-28T12:06:20.476Z,100628.75
2018-07-28T12:08:49.955Z,100622.60
2018-07-28T12:11:19.383Z,100623.47
2018-07-28T12:13:48.331Z,100613.00
2018-07-28T12:16:17.288Z,100619.02
2018-07-28T12:18:47.337Z,100625.17
2018-07-28T12:21:17.097Z,100606.47
2018-07-28T12:23:46.007Z,100591.08
2018-07-28T12:26:15.494Z,100592.77
2018-07-28T12:28:44.684Z,100584.17
2018-07-28T12:31:14.731Z,100570.45
2018-07-28T12:33:44.128Z,100581.65
2018-07-28T12:36:13.103Z,100572.02
2018-07-28T12:38:41.999Z,100572.08
2018-07-28T12:41:11.274Z,100571.56
2018-07-28T12:43:40.455Z,100570.92
2018-07-28T12:46:09.728Z,100583.36
2018-07-28T12:48:38.755Z,100586.63
2018-07-28T12:51:08.445Z,100598.47
2018-07-28T12:53:37.427Z,100581.06
2018-07-28T12:56:07.856Z,100585.00
2018-07-28T12:58:37.733Z,100589.17
2018-07-28T13:01:07.456Z,100583.69
2018-07-28T13:03:37.447Z,100587.11
2018-07-28T13:06:07.387Z,100594.52
2018-07-28T13:08:36.981Z,100587.07
2018-07-28T13:11:05.888Z,100580.84
2018-07-28T13:13:35.043Z,100569.58
2018-07-28T13:16:04.844Z,100577.92
2018-07-28T13:18:34.047Z,100563.41
2018-07-28T13:21:03.727Z,100577.33
2018-07-28T13:23:32.926Z,100574.38
2018-07-28T13:26:02.188Z,100569.69
2018-07-28T13:28:31.651Z,100568.81
2018-07-28T13:31:01.109Z,100572.69
2018-07-28T13:33:30.697Z,100564.55
2018-07-28T13:36:00.199Z,100571.83
2018-07-28T13:38:29.760Z,100578.02
2018-07-28T13:40:58.982Z,100574.00
2018-07-28T13:43:28.179Z,100574.77
2018-07-28T13:45:57.479Z,100577.45
2018-07-28T13:48:27.291Z,100575.69
2018-07-28T13:50:56.440Z,100564.18
2018-07-28T13:53:25.714Z,100569.94
2018-07-28T13:55:56.292Z,100566.20
2018-07-28T13:58:26.056Z,100568.61
2018-07-28T14:00:56.240Z,100565.75
2018-07-28T14:03:26.075Z,100569.94
2018-07-28T14:05:56.130Z,100567.27
2018-07-28T14:08:25.935Z,100566.52
2018-07-28T14:10:55.601Z,100557.08
2018-07-28T14:13:25.024Z,100550.62
2018-07-28T14:15:55.039Z,100544.88
2018-07-28T14:18:24.620Z,100536.31
2018-07-28T14:20:54.761Z,100533.20
2018-07-28T14:23:25.115Z,100536.06
2018-07-28T14:25:54.544Z,100534.89
2018-07-28T14:28:24.288Z,100535.95
2018-07-28T14:30:54.592Z,100530.81
2018-07-28T14:33:25.201Z,100531.82
2018-07-28T14:36:57.824Z,100521.23
2018-07-28T14:39:27.558Z,100522.93
2018-07-28T14:41:57.370Z,100529.84
2018-07-28T14:44:26.597Z,100528.52
2018-07-28T14:46:56.272Z,100520.44
2018-07-28T14:49:25.556Z,100515.37
2018-07-28T14:51:55.640Z,100508.52
2018-07-28T14:54:25.158Z,100499.42
2018-07-28T14:56:55.522Z,100495.06
2018-07-28T14:59:25.891Z,100499.80
2018-07-28T15:01:56.160Z,100497.75
2018-07-28T15:04:25.417Z,100495.78
2018-07-28T15:06:55.813Z,100497.20
2018-07-28T15:09:26.096Z,100490.80
2018-07-28T15:11:56.146Z,100490.67
2018-07-28T15:14:25.593Z,100483.78
2018-07-28T15:16:55.653Z,100489.20
2018-07-28T15:19:26.196Z,100484.19
2018-07-28T15:21:55.694Z,100481.25
2018-07-28T15:24:25.140Z,100482.56
2018-07-28T15:26:54.991Z,100479.20
2018-07-28T15:29:27.361Z,100478.92
2018-07-28T15:31:57.274Z,100479.50
2018-07-28T15:34:27.067Z,100482.45
2018-07-28T15:36:56.991Z,100481.08
2018-07-28T15:39:27.075Z,100481.31
2018-07-28T15:41:56.753Z,100484.30
2018-07-28T15:44:26.495Z,100488.37
2018-07-28T15:46:56.069Z,100479.81
2018-07-28T15:49:25.681Z,100478.17
2018-07-28T15:51:54.896Z,100484.80
2018-07-28T15:54:24.959Z,100488.16
2018-07-28T15:56:55.079Z,100479.61
2018-07-28T15:59:25.641Z,100489.14
2018-07-28T16:01:55.555Z,100486.32
2018-07-28T16:04:24.640Z,100484.13
2018-07-28T16:06:54.436Z,100486.42
2018-07-28T16:09:24.712Z,100487.87
2018-07-28T16:11:54.684Z,100496.95
2018-07-28T16:14:24.739Z,100488.30
2018-07-28T16:16:54.924Z,100487.80
2018-07-28T16:19:25.088Z,100486.42
2018-07-28T16:21:55.922Z,100485.07
2018-07-28T16:24:26.284Z,100477.52
2018-07-28T16:26:55.503Z,100471.56
2018-07-28T16:29:25.228Z,100476.94
2018-07-28T16:31:58.139Z,100475.83
2018-07-28T16:34:28.235Z,100469.12
2018-07-28T16:36:57.467Z,100475.88
2018-07-28T16:39:27.508Z,100464.54
2018-07-28T16:41:58.082Z,100459.39
2018-07-28T16:44:27.355Z,100460.91
2018-07-28T16:46:57.526Z,100453.49
2018-07-28T16:49:27.235Z,100445.80
2018-07-28T16:51:57.364Z,100450.30
2018-07-28T16:54:27.070Z,100448.98
2018-07-28T16:56:57.880Z,100439.03
2018-07-28T16:59:27.765Z,100440.77
2018-07-28T17:01:58.080Z,100426.72
2018-07-28T17:04:27.338Z,100436.77
2018-07-28T17:06:57.406Z,100423.33
2018-07-28T17:09:27.711Z,100428.62
2018-07-28T17:11:57.527Z,100434.39
2018-07-28T17:14:27.200Z,100435.44
2018-07-28T17:16:57.091Z,100439.38
2018-07-28T17:19:27.487Z,100439.39
2018-07-28T17:21:56.859Z,100436.41
2018-07-28T17:24:27.920Z,100425.66
2018-07-28T17:26:58.411Z,100423.80
2018-07-28T17:29:27.420Z,100422.69
2018-07-28T17:31:57.207Z,100424.18
2018-07-28T17:34:27.286Z,100435.98
2018-07-28T17:36:56.586Z,100425.70
2018-07-28T17:39:27.364Z,100428.00
2018-07-28T17:41:56.675Z,100415.64
2018-07-28T17:44:26.464Z,100421.80
2018-07-28T17:46:56.507Z,100409.74
2018-07-28T17:49:25.806Z,100408.36
2018-07-28T17:51:57.406Z,100404.27
2018-07-28T17:54:26.794Z,100407.84
2018-07-28T17:56:58.226Z,100411.75
2018-07-28T17:59:28.142Z,100415.63
2018-07-28T18:01:58.810Z,100423.91
2018-07-28T18:04:28.372Z,100421.56
2018-07-28T18:06:59.765Z,100420.51
2018-07-28T18:09:29.720Z,100422.12
2018-07-28T18:11:59.249Z,100417.22
2018-07-28T18:14:28.611Z,100422.47
2018-07-28T18:16:58.807Z,100420.98
2018-07-28T18:19:28.349Z,100421.25
2018-07-28T18:21:57.576Z,100420.18
2018-07-28T18:24:26.662Z,100423.36
2018-07-28T18:26:56.202Z,100422.08
2018-07-28T18:29:25.891Z,100422.82
2018-07-28T18:31:57.467Z,100417.94
2018-07-28T18:34:27.415Z,100422.42
2018-07-28T18:36:57.212Z,100427.55
2018-07-28T18:39:27.380Z,100431.80
2018-07-28T18:41:56.788Z,100430.01
2018-07-28T18:44:26.611Z,100432.92
2018-07-28T18:46:56.265Z,100436.80
2018-07-28T18:49:26.123Z,100441.47
2018-07-28T18:51:55.476Z,100443.69
2018-07-28T18:54:25.050Z,100434.66
2018-07-28T18:56:56.892Z,100442.30
2018-07-28T18:59:26.543Z,100449.63
2018-07-28T19:01:57.232Z,100452.48
2018-07-28T19:04:26.731Z,100441.92
2018-07-28T19:06:56.904Z,100446.98
2018-07-28T19:09:32.240Z,100444.96
2018-07-28T19:12:01.441Z,100451.09
2018-07-28T19:14:36.083Z,100448.16
2018-07-28T19:17:05.398Z,100454.28
2018-07-28T19:19:35.155Z,100463.07
2018-07-28T19:22:08.485Z,100458.44
2018-07-28T19:24:37.812Z,100460.67
2018-07-28T19:27:07.190Z,100460.52
2018-07-28T19:29:40.824Z,100459.52
2018-07-28T19:32:11.021Z,100457.96
2018-07-28T19:34:40.191Z,100459.12
2018-07-28T19:37:14.648Z,100455.86
2018-07-28T19:39:43.808Z,100453.16
2018-07-28T19:42:18.305Z,100453.78
2018-07-28T19:44:47.427Z,100456.86
2018-07-28T19:47:16.689Z,100462.41
2018-07-28T19:49:45.620Z,100469.56
2018-07-28T19:52:15.444Z,100469.52
2018-07-28T19:54:44.375Z,100463.78
2018-07-28T19:57:14.183Z,100466.59
2018-07-28T19:59:43.380Z,100460.66
2018-07-28T20:02:13.683Z,100463.23
2018-07-28T20:04:42.583Z,100452.87
2018-07-28T20:07:12.997Z,100452.31
2018-07-28T20:09:42.324Z,100446.87
2018-07-28T20:12:11.641Z,100446.91
2018-07-28T20:14:40.590Z,100440.74
2018-07-28T20:17:09.812Z,100442.24
2018-07-28T20:19:39.730Z,100436.11
2018-07-28T20:22:08.743Z,100431.87
2018-07-28T20:24:38.029Z,100436.03
2018-07-28T20:27:07.533Z,100450.80
2018-07-28T20:29:36.696Z,100444.22
2018-07-28T20:32:06.816Z,100443.95
2018-07-28T20:34:36.149Z,100436.62
2018-07-28T20:37:05.140Z,100435.83
2018-07-28T20:39:34.066Z,100432.60
2018-07-28T20:42:03.308Z,100430.73
2018-07-28T20:44:35.373Z,100434.84
2018-07-28T20:47:05.694Z,100435.39
2018-07-28T20:49:34.556Z,100429.16
2018-07-28T20:52:03.655Z,100430.59
2018-07-28T20:54:32.880Z,100431.46
2018-07-28T20:57:03.755Z,100436.22
2018-07-28T20:59:32.993Z,100433.80
2018-07-28T21:02:02.904Z,100431.91
2018-07-28T21:04:32.513Z,100427.60
2018-07-28T21:07:01.405Z,100425.20
2018-07-28T21:09:31.568Z,100421.44
2018-07-28T21:12:00.856Z,100419.04
2018-07-28T21:14:30.052Z,100425.42
2018-07-28T21:16:59.372Z,100424.10
2018-07-28T21:19:29.287Z,100421.73
2018-07-28T21:21:58.223Z,100417.94
2018-07-28T21:24:27.172Z,100426.45
2018-07-28T21:26:56.959Z,100422.69
2018-07-28T21:29:26.788Z,100423.25
2018-07-28T21:31:56.659Z,100424.11
2018-07-28T21:34:26.516Z,100415.38
2018-07-28T21:36:56.096Z,100408.56
2018-07-28T21:39:25.376Z,100405.63
2018-07-28T21:41:54.728Z,100407.82
2018-07-28T21:44:23.976Z,100406.20
2018-07-28T21:46:52.978Z,100406.47
2018-07-28T21:49:22.201Z,100399.36
2018-07-28T21:51:51.185Z,100391.16
2018-07-28T21:54:20.453Z,100393.89
2018-07-28T21:56:50.773Z,100396.36
2018-07-28T21:59:20.915Z,100393.91
2018-07-28T22:01:51.256Z,100400.16
2018-07-28T22:04:27.188Z,100391.14
2018-07-28T22:06:56.654Z,100388.41
2018-07-28T22:09:27.512Z,100381.58
2018-07-28T22:11:57.194Z,100376.40
2018-07-28T22:14:27.182Z,100383.52
2018-07-28T22:16:56.783Z,100380.78
2018-07-28T22:19:27.316Z,100384.35
2018-07-28T22:21:56.546Z,100385.16
2018-07-28T22:24:26.449Z,100390.06
2018-07-28T22:26:55.689Z,100390.59
2018-07-28T22:29:25.497Z,100382.11
2018-07-28T22:31:56.366Z,100388.67
2018-07-28T22:34:26.196Z,100384.33
2018-07-28T22:36:56.345Z,100382.41
2018-07-28T22:39:25.770Z,100379.15
2018-07-28T22:41:56.567Z,100388.45
2018-07-28T22:44:26.385Z,100384.38
2018-07-28T22:46:55.779Z,100386.02
2018-07-28T22:49:26.552Z,100384.97
2018-07-28T22:51:57.108Z,100383.08
2018-07-28T22:54:26.561Z,100376.27
2018-07-28T22:56:56.712Z,100372.98
2018-07-28T22:59:27.179Z,100373.78
2018-07-28T23:01:57.338Z,100373.52
2018-07-28T23:04:26.772Z,100381.19
2018-07-28T23:06:58.162Z,100377.34
2018-07-28T23:09:27.960Z,100379.55
2018-07-28T23:11:57.206Z,100375.50
2018-07-28T23:14:26.648Z,100376.60
2018-07-28T23:16:56.865Z,100377.15
2018-07-28T23:19:26.635Z,100373.05
2018-07-28T23:21:56.403Z,100374.44
2018-07-28T23:24:26.123Z,100370.61
2018-07-28T23:26:55.256Z,100360.23
2018-07-28T23:29:24.883Z,100357.50
2018-07-28T23:31:57.318Z,100357.50
2018-07-28T23:34:27.192Z,100350.67
2018-07-28T23:36:57.277Z,100352.85
2018-07-28T23:39:27.619Z,100349.88
2018-07-28T23:41:57.505Z,100346.33
2018-07-28T23:44:26.890Z,100346.34
2018-07-28T23:46:57.455Z,100348.25
2018-07-28T23:49:26.984Z,100348.77
2018-07-28T23:51:58.447Z,100344.67
2018-07-28T23:54:28.705Z,100351.77
2018-07-28T23:56:59.660Z,100360.23
2018-07-28T23:59:29.144Z,100362.43
